sensor_id;sensor_type;location;lat;lon;timestamp;P1;durP1;ratioP1;P2;durP2;ratioP2
2213;SDS011;1113;42.018;23.986;2022-08-11T00:00:33;7.93;;;7.13;;
2213;SDS011;1113;42.018;23.986;2022-08-11T00:03:05;8.50;;;7.60;;
2213;SDS011;1113;42.018;23.986;2022-08-11T00:05:37;7.83;;;7.13;;
2213;SDS011;1113;42.018;23.986;2022-08-11T00:08:18;8.90;;;8.20;;
2213;SDS011;1113;42.018;23.986;2022-08-11T00:10:50;9.00;;;8.20;;
2213;SDS011;1113;42.018;23.986;2022-08-11T00:13:19;9.43;;;8.63;;
2213;SDS011;1113;42.018;23.986;2022-08-11T00:15:47;9.00;;;8.20;;
2213;SDS011;1113;42.018;23.986;2022-08-11T00:18:14;9.40;;;8.50;;
2213;SDS011;1113;42.018;23.986;2022-08-11T00:20:44;9.50;;;8.53;;
2213;SDS011;1113;42.018;23.986;2022-08-11T00:23:13;9.27;;;8.47;;
2213;SDS011;1113;42.018;23.986;2022-08-11T00:25:44;9.10;;;8.27;;
2213;SDS011;1113;42.018;23.986;2022-08-11T00:28:25;9.43;;;7.93;;
2213;SDS011;1113;42.018;23.986;2022-08-11T00:30:54;9.30;;;8.40;;
2213;SDS011;1113;42.018;23.986;2022-08-11T00:33:25;10.30;;;9.30;;
2213;SDS011;1113;42.018;23.986;2022-08-11T00:36:00;14.87;;;13.57;;
2213;SDS011;1113;42.018;23.986;2022-08-11T00:38:31;13.40;;;12.10;;
2213;SDS011;1113;42.018;23.986;2022-08-11T00:41:00;11.43;;;10.43;;
2213;SDS011;1113;42.018;23.986;2022-08-11T00:43:44;13.13;;;11.70;;
2213;SDS011;1113;42.018;23.986;2022-08-11T00:46:20;11.23;;;10.13;;
2213;SDS011;1113;42.018;23.986;2022-08-11T00:49:07;13.57;;;12.37;;
2213;SDS011;1113;42.018;23.986;2022-08-11T00:51:54;12.47;;;11.33;;
2213;SDS011;1113;42.018;23.986;2022-08-11T00:57:52;10.80;;;9.77;;
2213;SDS011;1113;42.018;23.986;2022-08-11T01:00:41;10.87;;;9.90;;
2213;SDS011;1113;42.018;23.986;2022-08-11T01:03:31;10.03;;;9.17;;
2213;SDS011;1113;42.018;23.986;2022-08-11T01:09:34;9.77;;;8.77;;
2213;SDS011;1113;42.018;23.986;2022-08-11T01:12:27;9.73;;;8.77;;
2213;SDS011;1113;42.018;23.986;2022-08-11T01:18:35;10.00;;;9.10;;
2213;SDS011;1113;42.018;23.986;2022-08-11T01:24:43;10.13;;;9.10;;
2213;SDS011;1113;42.018;23.986;2022-08-11T01:27:31;9.40;;;8.50;;
2213;SDS011;1113;42.018;23.986;2022-08-11T01:30:35;9.73;;;8.80;;
2213;SDS011;1113;42.018;23.986;2022-08-11T01:39:31;7.77;;;7.07;;
2213;SDS011;1113;42.018;23.986;2022-08-11T01:45:29;13.57;;;10.33;;
2213;SDS011;1113;42.018;23.986;2022-08-11T01:48:03;11.80;;;10.60;;
2213;SDS011;1113;42.018;23.986;2022-08-11T01:50:37;11.43;;;10.37;;
2213;SDS011;1113;42.018;23.986;2022-08-11T01:53:17;12.20;;;10.90;;
2213;SDS011;1113;42.018;23.986;2022-08-11T01:55:53;11.43;;;10.33;;
2213;SDS011;1113;42.018;23.986;2022-08-11T01:58:41;12.07;;;11.00;;
2213;SDS011;1113;42.018;23.986;2022-08-11T02:01:26;12.80;;;11.43;;
2213;SDS011;1113;42.018;23.986;2022-08-11T02:04:08;12.10;;;11.00;;
2213;SDS011;1113;42.018;23.986;2022-08-11T02:06:44;11.47;;;10.33;;
2213;SDS011;1113;42.018;23.986;2022-08-11T02:12:12;12.20;;;11.00;;
2213;SDS011;1113;42.018;23.986;2022-08-11T02:14:41;12.73;;;11.43;;
2213;SDS011;1113;42.018;23.986;2022-08-11T02:17:16;13.80;;;12.20;;
2213;SDS011;1113;42.018;23.986;2022-08-11T02:19:49;16.03;;;13.90;;
2213;SDS011;1113;42.018;23.986;2022-08-11T02:22:50;14.00;;;12.60;;
2213;SDS011;1113;42.018;23.986;2022-08-11T02:25:44;14.17;;;12.23;;
2213;SDS011;1113;42.018;23.986;2022-08-11T02:28:21;13.20;;;11.80;;
2213;SDS011;1113;42.018;23.986;2022-08-11T02:33:58;12.13;;;11.03;;
2213;SDS011;1113;42.018;23.986;2022-08-11T02:36:37;13.40;;;12.10;;
2213;SDS011;1113;42.018;23.986;2022-08-11T02:39:12;13.90;;;12.17;;
2213;SDS011;1113;42.018;23.986;2022-08-11T02:41:49;12.23;;;11.03;;
2213;SDS011;1113;42.018;23.986;2022-08-11T02:44:42;12.93;;;11.17;;
2213;SDS011;1113;42.018;23.986;2022-08-11T02:47:17;12.20;;;11.00;;
2213;SDS011;1113;42.018;23.986;2022-08-11T02:50:03;13.10;;;11.70;;
2213;SDS011;1113;42.018;23.986;2022-08-11T02:52:46;12.67;;;11.37;;
2213;SDS011;1113;42.018;23.986;2022-08-11T02:55:26;12.73;;;11.30;;
2213;SDS011;1113;42.018;23.986;2022-08-11T02:58:00;13.47;;;12.17;;
2213;SDS011;1113;42.018;23.986;2022-08-11T03:00:42;14.97;;;11.70;;
2213;SDS011;1113;42.018;23.986;2022-08-11T03:03:17;13.50;;;12.23;;
2213;SDS011;1113;42.018;23.986;2022-08-11T03:05:52;11.97;;;10.77;;
2213;SDS011;1113;42.018;23.986;2022-08-11T03:08:49;13.23;;;12.03;;
2213;SDS011;1113;42.018;23.986;2022-08-11T03:11:25;13.07;;;11.87;;
2213;SDS011;1113;42.018;23.986;2022-08-11T03:14:26;14.33;;;12.93;;
2213;SDS011;1113;42.018;23.986;2022-08-11T03:17:18;12.40;;;11.20;;
2213;SDS011;1113;42.018;23.986;2022-08-11T03:19:53;13.70;;;12.20;;
2213;SDS011;1113;42.018;23.986;2022-08-11T03:22:32;14.63;;;12.47;;
2213;SDS011;1113;42.018;23.986;2022-08-11T03:25:05;15.03;;;13.53;;
2213;SDS011;1113;42.018;23.986;2022-08-11T03:27:44;13.27;;;12.07;;
2213;SDS011;1113;42.018;23.986;2022-08-11T03:30:18;13.87;;;12.50;;
2213;SDS011;1113;42.018;23.986;2022-08-11T03:32:55;13.07;;;11.87;;
2213;SDS011;1113;42.018;23.986;2022-08-11T03:35:52;14.83;;;11.63;;
2213;SDS011;1113;42.018;23.986;2022-08-11T03:38:33;14.33;;;12.80;;
2213;SDS011;1113;42.018;23.986;2022-08-11T03:41:28;15.03;;;13.30;;
2213;SDS011;1113;42.018;23.986;2022-08-11T03:44:11;13.70;;;12.40;;
2213;SDS011;1113;42.018;23.986;2022-08-11T03:50:02;14.47;;;13.07;;
2213;SDS011;1113;42.018;23.986;2022-08-11T03:52:42;14.70;;;13.20;;
2213;SDS011;1113;42.018;23.986;2022-08-11T03:55:18;14.80;;;13.50;;
2213;SDS011;1113;42.018;23.986;2022-08-11T03:58:05;16.80;;;14.43;;
2213;SDS011;1113;42.018;23.986;2022-08-11T04:04:14;13.87;;;12.50;;
2213;SDS011;1113;42.018;23.986;2022-08-11T04:10:31;14.43;;;12.93;;
2213;SDS011;1113;42.018;23.986;2022-08-11T04:16:34;15.70;;;12.80;;
2213;SDS011;1113;42.018;23.986;2022-08-11T04:19:32;15.17;;;13.77;;
2213;SDS011;1113;42.018;23.986;2022-08-11T04:22:24;15.53;;;12.93;;
2213;SDS011;1113;42.018;23.986;2022-08-11T04:25:25;13.50;;;12.20;;
2213;SDS011;1113;42.018;23.986;2022-08-11T04:28:16;15.03;;;13.73;;
2213;SDS011;1113;42.018;23.986;2022-08-11T04:30:56;13.70;;;12.30;;
2213;SDS011;1113;42.018;23.986;2022-08-11T04:33:35;14.87;;;13.57;;
2213;SDS011;1113;42.018;23.986;2022-08-11T04:36:09;15.10;;;13.70;;
2213;SDS011;1113;42.018;23.986;2022-08-11T04:38:44;14.30;;;12.90;;
2213;SDS011;1113;42.018;23.986;2022-08-11T04:47:32;14.43;;;12.93;;
2213;SDS011;1113;42.018;23.986;2022-08-11T04:50:28;16.53;;;14.83;;
2213;SDS011;1113;42.018;23.986;2022-08-11T04:53:28;14.50;;;13.10;;
2213;SDS011;1113;42.018;23.986;2022-08-11T04:56:17;16.60;;;15.10;;
2213;SDS011;1113;42.018;23.986;2022-08-11T04:59:07;16.33;;;14.73;;
2213;SDS011;1113;42.018;23.986;2022-08-11T05:02:02;21.40;;;15.60;;
2213;SDS011;1113;42.018;23.986;2022-08-11T05:04:44;15.13;;;13.83;;
2213;SDS011;1113;42.018;23.986;2022-08-11T05:07:36;18.40;;;16.37;;
2213;SDS011;1113;42.018;23.986;2022-08-11T05:10:16;19.13;;;17.23;;
2213;SDS011;1113;42.018;23.986;2022-08-11T05:12:45;18.30;;;16.40;;
2213;SDS011;1113;42.018;23.986;2022-08-11T05:15:15;17.30;;;15.60;;
2213;SDS011;1113;42.018;23.986;2022-08-11T05:18:01;19.30;;;17.40;;
2213;SDS011;1113;42.018;23.986;2022-08-11T05:20:52;25.80;;;23.10;;
2213;SDS011;1113;42.018;23.986;2022-08-11T05:23:38;31.70;;;28.70;;
2213;SDS011;1113;42.018;23.986;2022-08-11T05:26:22;31.40;;;28.20;;
2213;SDS011;1113;42.018;23.986;2022-08-11T05:32:05;26.13;;;23.47;;
2213;SDS011;1113;42.018;23.986;2022-08-11T05:34:51;23.10;;;20.70;;
2213;SDS011;1113;42.018;23.986;2022-08-11T05:37:21;20.20;;;18.40;;
2213;SDS011;1113;42.018;23.986;2022-08-11T05:39:48;23.10;;;20.70;;
2213;SDS011;1113;42.018;23.986;2022-08-11T05:42:33;21.87;;;19.87;;
2213;SDS011;1113;42.018;23.986;2022-08-11T05:45:19;19.80;;;17.90;;
2213;SDS011;1113;42.018;23.986;2022-08-11T05:48:03;21.83;;;19.83;;
2213;SDS011;1113;42.018;23.986;2022-08-11T05:50:51;19.07;;;16.83;;
2213;SDS011;1113;42.018;23.986;2022-08-11T05:53:44;16.87;;;15.37;;
2213;SDS011;1113;42.018;23.986;2022-08-11T05:56:28;18.40;;;16.73;;
2213;SDS011;1113;42.018;23.986;2022-08-11T05:58:55;16.80;;;15.20;;
2213;SDS011;1113;42.018;23.986;2022-08-11T06:04:12;16.33;;;14.63;;
2213;SDS011;1113;42.018;23.986;2022-08-11T06:06:45;18.13;;;16.50;;
2213;SDS011;1113;42.018;23.986;2022-08-11T06:09:16;17.47;;;15.77;;
2213;SDS011;1113;42.018;23.986;2022-08-11T06:11:45;16.27;;;14.70;;
2213;SDS011;1113;42.018;23.986;2022-08-11T06:14:12;14.80;;;13.50;;
2213;SDS011;1113;42.018;23.986;2022-08-11T06:16:39;24.67;;;14.37;;
2213;SDS011;1113;42.018;23.986;2022-08-11T06:19:06;12.57;;;11.47;;
2213;SDS011;1113;42.018;23.986;2022-08-11T06:21:33;10.47;;;9.37;;
2213;SDS011;1113;42.018;23.986;2022-08-11T06:24:02;11.00;;;9.93;;
2213;SDS011;1113;42.018;23.986;2022-08-11T06:26:30;12.20;;;11.10;;
2213;SDS011;1113;42.018;23.986;2022-08-11T06:28:57;13.37;;;11.60;;
2213;SDS011;1113;42.018;23.986;2022-08-11T06:31:25;14.13;;;11.57;;
2213;SDS011;1113;42.018;23.986;2022-08-11T06:33:54;13.40;;;12.00;;
2213;SDS011;1113;42.018;23.986;2022-08-11T06:36:22;11.77;;;10.37;;
2213;SDS011;1113;42.018;23.986;2022-08-11T06:38:56;18.37;;;10.93;;
2213;SDS011;1113;42.018;23.986;2022-08-11T06:44:06;12.47;;;11.17;;
2213;SDS011;1113;42.018;23.986;2022-08-11T06:46:35;16.00;;;10.00;;
2213;SDS011;1113;42.018;23.986;2022-08-11T06:49:03;12.13;;;10.97;;
2213;SDS011;1113;42.018;23.986;2022-08-11T06:51:30;12.47;;;11.30;;
2213;SDS011;1113;42.018;23.986;2022-08-11T06:53:59;14.00;;;12.20;;
2213;SDS011;1113;42.018;23.986;2022-08-11T06:56:26;13.57;;;12.10;;
2213;SDS011;1113;42.018;23.986;2022-08-11T06:59:13;13.30;;;12.03;;
2213;SDS011;1113;42.018;23.986;2022-08-11T07:01:59;11.53;;;10.43;;
2213;SDS011;1113;42.018;23.986;2022-08-11T07:04:29;10.53;;;9.53;;
2213;SDS011;1113;42.018;23.986;2022-08-11T07:07:04;11.87;;;10.70;;
2213;SDS011;1113;42.018;23.986;2022-08-11T07:12:48;10.17;;;9.27;;
2213;SDS011;1113;42.018;23.986;2022-08-11T07:15:34;10.27;;;9.17;;
2213;SDS011;1113;42.018;23.986;2022-08-11T07:18:07;9.43;;;8.63;;
2213;SDS011;1113;42.018;23.986;2022-08-11T07:20:52;8.23;;;7.50;;
2213;SDS011;1113;42.018;23.986;2022-08-11T07:23:37;8.43;;;7.53;;
2213;SDS011;1113;42.018;23.986;2022-08-11T07:26:22;8.77;;;7.97;;
2213;SDS011;1113;42.018;23.986;2022-08-11T07:29:06;8.17;;;7.47;;
2213;SDS011;1113;42.018;23.986;2022-08-11T07:31:37;8.63;;;7.83;;
2213;SDS011;1113;42.018;23.986;2022-08-11T07:34:15;7.93;;;7.20;;
2213;SDS011;1113;42.018;23.986;2022-08-11T07:36:46;7.93;;;7.23;;
2213;SDS011;1113;42.018;23.986;2022-08-11T07:39:15;8.53;;;7.47;;
2213;SDS011;1113;42.018;23.986;2022-08-11T07:41:43;10.73;;;6.97;;
2213;SDS011;1113;42.018;23.986;2022-08-11T07:44:10;7.00;;;6.30;;
2213;SDS011;1113;42.018;23.986;2022-08-11T07:46:40;7.00;;;6.40;;
2213;SDS011;1113;42.018;23.986;2022-08-11T07:49:24;9.07;;;7.23;;
2213;SDS011;1113;42.018;23.986;2022-08-11T07:52:09;6.70;;;6.10;;
2213;SDS011;1113;42.018;23.986;2022-08-11T07:54:58;7.40;;;6.70;;
2213;SDS011;1113;42.018;23.986;2022-08-11T07:57:25;6.40;;;5.80;;
2213;SDS011;1113;42.018;23.986;2022-08-11T08:00:10;11.23;;;5.53;;
2213;SDS011;1113;42.018;23.986;2022-08-11T08:02:55;7.63;;;5.30;;
2213;SDS011;1113;42.018;23.986;2022-08-11T08:05:41;5.87;;;5.37;;
2213;SDS011;1113;42.018;23.986;2022-08-11T08:08:25;9.93;;;5.47;;
2213;SDS011;1113;42.018;23.986;2022-08-11T08:11:09;6.83;;;6.17;;
2213;SDS011;1113;42.018;23.986;2022-08-11T08:13:53;6.13;;;5.53;;
2213;SDS011;1113;42.018;23.986;2022-08-11T08:16:38;5.67;;;5.17;;
2213;SDS011;1113;42.018;23.986;2022-08-11T08:19:24;6.03;;;5.53;;
2213;SDS011;1113;42.018;23.986;2022-08-11T08:21:51;5.17;;;4.70;;
2213;SDS011;1113;42.018;23.986;2022-08-11T08:24:17;5.83;;;5.23;;
2213;SDS011;1113;42.018;23.986;2022-08-11T08:26:45;6.40;;;5.90;;
2213;SDS011;1113;42.018;23.986;2022-08-11T08:29:26;5.57;;;5.07;;
2213;SDS011;1113;42.018;23.986;2022-08-11T08:32:11;5.67;;;4.77;;
2213;SDS011;1113;42.018;23.986;2022-08-11T08:34:39;5.37;;;4.87;;
2213;SDS011;1113;42.018;23.986;2022-08-11T08:37:06;4.90;;;4.50;;
2213;SDS011;1113;42.018;23.986;2022-08-11T08:39:32;5.23;;;4.63;;
2213;SDS011;1113;42.018;23.986;2022-08-11T08:42:02;6.53;;;4.50;;
2213;SDS011;1113;42.018;23.986;2022-08-11T08:44:33;7.00;;;4.90;;
2213;SDS011;1113;42.018;23.986;2022-08-11T08:46:59;5.80;;;4.63;;
2213;SDS011;1113;42.018;23.986;2022-08-11T08:49:29;6.93;;;4.53;;
2213;SDS011;1113;42.018;23.986;2022-08-11T08:51:59;6.60;;;4.33;;
2213;SDS011;1113;42.018;23.986;2022-08-11T08:54:28;7.00;;;4.60;;
2213;SDS011;1113;42.018;23.986;2022-08-11T08:56:55;4.70;;;3.90;;
2213;SDS011;1113;42.018;23.986;2022-08-11T08:59:26;5.43;;;4.93;;
2213;SDS011;1113;42.018;23.986;2022-08-11T09:01:54;4.93;;;4.30;;
2213;SDS011;1113;42.018;23.986;2022-08-11T09:04:23;5.27;;;4.83;;
2213;SDS011;1113;42.018;23.986;2022-08-11T09:06:59;5.70;;;5.10;;
2213;SDS011;1113;42.018;23.986;2022-08-11T09:09:28;5.03;;;4.30;;
2213;SDS011;1113;42.018;23.986;2022-08-11T09:11:56;6.07;;;3.80;;
2213;SDS011;1113;42.018;23.986;2022-08-11T09:14:24;3.83;;;3.53;;
2213;SDS011;1113;42.018;23.986;2022-08-11T09:17:11;3.70;;;3.40;;
2213;SDS011;1113;42.018;23.986;2022-08-11T09:19:37;5.00;;;4.00;;
2213;SDS011;1113;42.018;23.986;2022-08-11T09:22:06;6.10;;;4.30;;
2213;SDS011;1113;42.018;23.986;2022-08-11T09:27:37;4.10;;;3.77;;
2213;SDS011;1113;42.018;23.986;2022-08-11T09:30:05;4.47;;;4.07;;
2213;SDS011;1113;42.018;23.986;2022-08-11T09:32:32;4.40;;;4.00;;
2213;SDS011;1113;42.018;23.986;2022-08-11T09:35:04;4.57;;;3.47;;
2213;SDS011;1113;42.018;23.986;2022-08-11T09:37:33;3.50;;;3.20;;
2213;SDS011;1113;42.018;23.986;2022-08-11T09:40:19;3.90;;;3.50;;
2213;SDS011;1113;42.018;23.986;2022-08-11T09:42:54;3.93;;;3.57;;
2213;SDS011;1113;42.018;23.986;2022-08-11T09:45:39;3.60;;;3.30;;
2213;SDS011;1113;42.018;23.986;2022-08-11T09:48:05;3.50;;;3.20;;
2213;SDS011;1113;42.018;23.986;2022-08-11T09:50:32;2.97;;;2.67;;
2213;SDS011;1113;42.018;23.986;2022-08-11T09:53:01;4.80;;;3.20;;
2213;SDS011;1113;42.018;23.986;2022-08-11T09:55:30;5.77;;;3.27;;
2213;SDS011;1113;42.018;23.986;2022-08-11T09:57:57;4.83;;;3.63;;
2213;SDS011;1113;42.018;23.986;2022-08-11T10:00:38;4.93;;;3.90;;
2213;SDS011;1113;42.018;23.986;2022-08-11T10:03:05;3.43;;;2.90;;
2213;SDS011;1113;42.018;23.986;2022-08-11T10:05:33;3.70;;;3.40;;
2213;SDS011;1113;42.018;23.986;2022-08-11T10:08:18;4.00;;;3.00;;
2213;SDS011;1113;42.018;23.986;2022-08-11T10:10:45;3.63;;;3.33;;
2213;SDS011;1113;42.018;23.986;2022-08-11T10:13:13;3.57;;;3.20;;
2213;SDS011;1113;42.018;23.986;2022-08-11T10:15:42;3.47;;;3.13;;
2213;SDS011;1113;42.018;23.986;2022-08-11T10:18:10;3.87;;;3.43;;
2213;SDS011;1113;42.018;23.986;2022-08-11T10:20:57;3.47;;;3.17;;
2213;SDS011;1113;42.018;23.986;2022-08-11T10:23:27;3.17;;;2.87;;
2213;SDS011;1113;42.018;23.986;2022-08-11T10:26:11;3.40;;;3.10;;
2213;SDS011;1113;42.018;23.986;2022-08-11T10:28:55;3.77;;;3.37;;
2213;SDS011;1113;42.018;23.986;2022-08-11T10:31:23;3.60;;;2.90;;
2213;SDS011;1113;42.018;23.986;2022-08-11T10:34:07;3.40;;;3.00;;
2213;SDS011;1113;42.018;23.986;2022-08-11T10:36:35;5.67;;;2.87;;
2213;SDS011;1113;42.018;23.986;2022-08-11T10:39:09;4.10;;;3.30;;
2213;SDS011;1113;42.018;23.986;2022-08-11T10:41:38;3.90;;;3.30;;
2213;SDS011;1113;42.018;23.986;2022-08-11T10:44:22;5.10;;;3.20;;
2213;SDS011;1113;42.018;23.986;2022-08-11T10:46:49;3.57;;;2.57;;
2213;SDS011;1113;42.018;23.986;2022-08-11T10:49:33;3.57;;;2.73;;
2213;SDS011;1113;42.018;23.986;2022-08-11T10:51:59;4.97;;;3.63;;
2213;SDS011;1113;42.018;23.986;2022-08-11T10:54:45;2.80;;;2.60;;
2213;SDS011;1113;42.018;23.986;2022-08-11T10:57:30;3.60;;;3.27;;
2213;SDS011;1113;42.018;23.986;2022-08-11T11:00:14;3.07;;;2.77;;
2213;SDS011;1113;42.018;23.986;2022-08-11T11:02:41;3.00;;;2.77;;
2213;SDS011;1113;42.018;23.986;2022-08-11T11:05:09;3.87;;;3.47;;
2213;SDS011;1113;42.018;23.986;2022-08-11T11:07:38;3.07;;;2.77;;
2213;SDS011;1113;42.018;23.986;2022-08-11T11:10:07;3.03;;;2.83;;
2213;SDS011;1113;42.018;23.986;2022-08-11T11:12:35;4.00;;;3.60;;
2213;SDS011;1113;42.018;23.986;2022-08-11T11:15:21;4.10;;;2.80;;
2213;SDS011;1113;42.018;23.986;2022-08-11T11:18:07;3.20;;;2.90;;
2213;SDS011;1113;42.018;23.986;2022-08-11T11:20:38;4.10;;;3.30;;
2213;SDS011;1113;42.018;23.986;2022-08-11T11:23:06;3.20;;;2.77;;
2213;SDS011;1113;42.018;23.986;2022-08-11T11:28:46;3.00;;;2.70;;
2213;SDS011;1113;42.018;23.986;2022-08-11T11:34:16;3.20;;;2.90;;
2213;SDS011;1113;42.018;23.986;2022-08-11T11:36:46;3.10;;;2.80;;
2213;SDS011;1113;42.018;23.986;2022-08-11T11:39:15;3.53;;;3.20;;
2213;SDS011;1113;42.018;23.986;2022-08-11T11:41:42;3.00;;;2.70;;
2213;SDS011;1113;42.018;23.986;2022-08-11T11:44:12;3.40;;;3.10;;
2213;SDS011;1113;42.018;23.986;2022-08-11T11:46:39;3.53;;;3.23;;
2213;SDS011;1113;42.018;23.986;2022-08-11T11:49:09;3.40;;;2.67;;
2213;SDS011;1113;42.018;23.986;2022-08-11T11:51:36;3.20;;;2.90;;
2213;SDS011;1113;42.018;23.986;2022-08-11T11:54:03;3.20;;;2.90;;
2213;SDS011;1113;42.018;23.986;2022-08-11T11:56:30;6.30;;;3.13;;
2213;SDS011;1113;42.018;23.986;2022-08-11T11:58:57;3.97;;;2.97;;
2213;SDS011;1113;42.018;23.986;2022-08-11T12:01:42;4.00;;;2.87;;
2213;SDS011;1113;42.018;23.986;2022-08-11T12:04:10;4.13;;;3.00;;
2213;SDS011;1113;42.018;23.986;2022-08-11T12:06:37;5.27;;;3.30;;
2213;SDS011;1113;42.018;23.986;2022-08-11T12:09:04;3.20;;;2.33;;
2213;SDS011;1113;42.018;23.986;2022-08-11T12:11:31;3.90;;;3.07;;
2213;SDS011;1113;42.018;23.986;2022-08-11T12:14:16;4.70;;;3.30;;
2213;SDS011;1113;42.018;23.986;2022-08-11T12:16:46;31.60;;;5.23;;
2213;SDS011;1113;42.018;23.986;2022-08-11T12:19:15;3.53;;;3.23;;
2213;SDS011;1113;42.018;23.986;2022-08-11T12:21:41;5.13;;;3.97;;
2213;SDS011;1113;42.018;23.986;2022-08-11T12:24:22;3.70;;;3.30;;
2213;SDS011;1113;42.018;23.986;2022-08-11T12:27:06;10.43;;;3.47;;
2213;SDS011;1113;42.018;23.986;2022-08-11T12:29:48;3.13;;;2.83;;
2213;SDS011;1113;42.018;23.986;2022-08-11T12:32:16;4.27;;;3.10;;
2213;SDS011;1113;42.018;23.986;2022-08-11T12:34:43;4.00;;;3.60;;
2213;SDS011;1113;42.018;23.986;2022-08-11T12:37:10;3.60;;;3.30;;
2213;SDS011;1113;42.018;23.986;2022-08-11T12:39:40;4.83;;;3.20;;
2213;SDS011;1113;42.018;23.986;2022-08-11T12:42:24;3.70;;;3.27;;
2213;SDS011;1113;42.018;23.986;2022-08-11T12:45:17;4.53;;;3.80;;
2213;SDS011;1113;42.018;23.986;2022-08-11T12:48:00;4.03;;;3.63;;
2213;SDS011;1113;42.018;23.986;2022-08-11T12:50:45;4.53;;;4.13;;
2213;SDS011;1113;42.018;23.986;2022-08-11T12:53:32;4.73;;;4.10;;
2213;SDS011;1113;42.018;23.986;2022-08-11T12:56:02;4.33;;;3.70;;
2213;SDS011;1113;42.018;23.986;2022-08-11T12:58:47;5.43;;;4.80;;
2213;SDS011;1113;42.018;23.986;2022-08-11T13:01:14;4.47;;;4.07;;
2213;SDS011;1113;42.018;23.986;2022-08-11T13:04:00;6.20;;;4.50;;
2213;SDS011;1113;42.018;23.986;2022-08-11T13:06:44;4.30;;;3.90;;
2213;SDS011;1113;42.018;23.986;2022-08-11T13:09:11;4.80;;;4.03;;
2213;SDS011;1113;42.018;23.986;2022-08-11T13:11:38;5.03;;;4.37;;
2213;SDS011;1113;42.018;23.986;2022-08-11T13:14:22;3.90;;;3.50;;
2213;SDS011;1113;42.018;23.986;2022-08-11T13:16:50;4.10;;;3.30;;
2213;SDS011;1113;42.018;23.986;2022-08-11T13:19:35;3.43;;;3.13;;
2213;SDS011;1113;42.018;23.986;2022-08-11T13:22:03;3.73;;;3.40;;
2213;SDS011;1113;42.018;23.986;2022-08-11T13:24:31;3.80;;;3.40;;
2213;SDS011;1113;42.018;23.986;2022-08-11T13:26:58;3.77;;;3.40;;
2213;SDS011;1113;42.018;23.986;2022-08-11T13:29:27;4.30;;;3.33;;
2213;SDS011;1113;42.018;23.986;2022-08-11T13:31:54;3.43;;;3.13;;
2213;SDS011;1113;42.018;23.986;2022-08-11T13:34:23;3.53;;;2.90;;
2213;SDS011;1113;42.018;23.986;2022-08-11T13:36:52;3.07;;;2.80;;
2213;SDS011;1113;42.018;23.986;2022-08-11T13:39:19;3.50;;;3.20;;
2213;SDS011;1113;42.018;23.986;2022-08-11T13:41:46;3.70;;;3.30;;
2213;SDS011;1113;42.018;23.986;2022-08-11T13:44:14;3.87;;;3.40;;
2213;SDS011;1113;42.018;23.986;2022-08-11T13:46:41;4.10;;;3.37;;
2213;SDS011;1113;42.018;23.986;2022-08-11T13:49:08;4.00;;;3.60;;
2213;SDS011;1113;42.018;23.986;2022-08-11T13:51:36;3.67;;;2.90;;
2213;SDS011;1113;42.018;23.986;2022-08-11T13:54:06;3.60;;;3.30;;
2213;SDS011;1113;42.018;23.986;2022-08-11T13:56:34;5.80;;;2.60;;
2213;SDS011;1113;42.018;23.986;2022-08-11T13:59:01;3.93;;;2.60;;
2213;SDS011;1113;42.018;23.986;2022-08-11T14:01:29;2.70;;;2.50;;
2213;SDS011;1113;42.018;23.986;2022-08-11T14:03:58;4.00;;;2.70;;
2213;SDS011;1113;42.018;23.986;2022-08-11T14:06:26;2.67;;;2.43;;
2213;SDS011;1113;42.018;23.986;2022-08-11T14:08:52;3.30;;;2.67;;
2213;SDS011;1113;42.018;23.986;2022-08-11T14:11:21;3.20;;;2.90;;
2213;SDS011;1113;42.018;23.986;2022-08-11T14:14:05;2.97;;;2.63;;
2213;SDS011;1113;42.018;23.986;2022-08-11T14:16:36;3.53;;;2.60;;
2213;SDS011;1113;42.018;23.986;2022-08-11T14:19:06;3.73;;;2.70;;
2213;SDS011;1113;42.018;23.986;2022-08-11T14:21:36;4.50;;;3.90;;
2213;SDS011;1113;42.018;23.986;2022-08-11T14:24:29;3.93;;;3.43;;
2213;SDS011;1113;42.018;23.986;2022-08-11T14:26:58;3.73;;;3.23;;
2213;SDS011;1113;42.018;23.986;2022-08-11T14:29:26;3.80;;;3.50;;
2213;SDS011;1113;42.018;23.986;2022-08-11T14:31:53;4.80;;;4.30;;
2213;SDS011;1113;42.018;23.986;2022-08-11T14:34:20;3.90;;;3.57;;
2213;SDS011;1113;42.018;23.986;2022-08-11T14:36:49;4.67;;;3.40;;
2213;SDS011;1113;42.018;23.986;2022-08-11T14:39:18;3.77;;;3.20;;
2213;SDS011;1113;42.018;23.986;2022-08-11T14:41:47;4.00;;;3.70;;
2213;SDS011;1113;42.018;23.986;2022-08-11T14:44:35;4.10;;;3.70;;
2213;SDS011;1113;42.018;23.986;2022-08-11T14:47:19;4.10;;;3.70;;
2213;SDS011;1113;42.018;23.986;2022-08-11T14:49:46;7.10;;;4.10;;
2213;SDS011;1113;42.018;23.986;2022-08-11T14:52:15;5.60;;;4.00;;
2213;SDS011;1113;42.018;23.986;2022-08-11T14:54:43;6.40;;;4.00;;
2213;SDS011;1113;42.018;23.986;2022-08-11T14:57:28;5.97;;;4.67;;
2213;SDS011;1113;42.018;23.986;2022-08-11T14:59:56;10.50;;;4.00;;
2213;SDS011;1113;42.018;23.986;2022-08-11T15:02:25;5.80;;;4.70;;
2213;SDS011;1113;42.018;23.986;2022-08-11T15:05:09;5.67;;;5.07;;
2213;SDS011;1113;42.018;23.986;2022-08-11T15:07:35;4.70;;;4.30;;
2213;SDS011;1113;42.018;23.986;2022-08-11T15:10:03;4.87;;;3.67;;
2213;SDS011;1113;42.018;23.986;2022-08-11T15:12:30;5.00;;;3.83;;
2213;SDS011;1113;42.018;23.986;2022-08-11T15:14:59;4.40;;;4.00;;
2213;SDS011;1113;42.018;23.986;2022-08-11T15:17:42;4.30;;;3.90;;
2213;SDS011;1113;42.018;23.986;2022-08-11T15:20:12;5.20;;;4.20;;
2213;SDS011;1113;42.018;23.986;2022-08-11T15:22:57;3.87;;;3.53;;
2213;SDS011;1113;42.018;23.986;2022-08-11T15:25:41;4.00;;;3.60;;
2213;SDS011;1113;42.018;23.986;2022-08-11T15:28:08;4.10;;;3.60;;
2213;SDS011;1113;42.018;23.986;2022-08-11T15:30:54;4.07;;;3.67;;
2213;SDS011;1113;42.018;23.986;2022-08-11T15:33:39;4.30;;;3.77;;
2213;SDS011;1113;42.018;23.986;2022-08-11T15:36:24;5.90;;;4.00;;
2213;SDS011;1113;42.018;23.986;2022-08-11T15:39:11;4.80;;;4.30;;
2213;SDS011;1113;42.018;23.986;2022-08-11T15:41:40;4.37;;;4.00;;
2213;SDS011;1113;42.018;23.986;2022-08-11T15:44:27;4.50;;;4.10;;
2213;SDS011;1113;42.018;23.986;2022-08-11T15:47:13;4.93;;;4.47;;
2213;SDS011;1113;42.018;23.986;2022-08-11T15:49:40;4.93;;;4.37;;
2213;SDS011;1113;42.018;23.986;2022-08-11T15:52:12;4.87;;;3.90;;
2213;SDS011;1113;42.018;23.986;2022-08-11T15:54:41;5.93;;;4.40;;
2213;SDS011;1113;42.018;23.986;2022-08-11T15:57:10;3.90;;;3.60;;
2213;SDS011;1113;42.018;23.986;2022-08-11T15:59:57;4.40;;;3.43;;
2213;SDS011;1113;42.018;23.986;2022-08-11T16:02:43;5.70;;;3.57;;
2213;SDS011;1113;42.018;23.986;2022-08-11T16:05:27;4.00;;;3.60;;
2213;SDS011;1113;42.018;23.986;2022-08-11T16:10:35;4.03;;;3.43;;
2213;SDS011;1113;42.018;23.986;2022-08-11T16:13:04;3.50;;;3.20;;
2213;SDS011;1113;42.018;23.986;2022-08-11T16:15:49;3.80;;;3.50;;
2213;SDS011;1113;42.018;23.986;2022-08-11T16:18:37;3.47;;;3.17;;
2213;SDS011;1113;42.018;23.986;2022-08-11T16:21:07;3.43;;;3.13;;
2213;SDS011;1113;42.018;23.986;2022-08-11T16:23:35;4.63;;;4.23;;
2213;SDS011;1113;42.018;23.986;2022-08-11T16:26:03;4.60;;;3.80;;
2213;SDS011;1113;42.018;23.986;2022-08-11T16:28:30;4.70;;;3.73;;
2213;SDS011;1113;42.018;23.986;2022-08-11T16:30:58;4.43;;;3.57;;
2213;SDS011;1113;42.018;23.986;2022-08-11T16:33:26;4.50;;;4.10;;
2213;SDS011;1113;42.018;23.986;2022-08-11T16:35:55;4.07;;;3.67;;
2213;SDS011;1113;42.018;23.986;2022-08-11T16:38:39;5.30;;;4.63;;
2213;SDS011;1113;42.018;23.986;2022-08-11T16:41:07;4.23;;;3.83;;
2213;SDS011;1113;42.018;23.986;2022-08-11T16:43:37;4.50;;;4.10;;
2213;SDS011;1113;42.018;23.986;2022-08-11T16:46:22;4.00;;;3.63;;
2213;SDS011;1113;42.018;23.986;2022-08-11T16:49:08;4.47;;;3.77;;
2213;SDS011;1113;42.018;23.986;2022-08-11T16:51:37;5.60;;;5.10;;
2213;SDS011;1113;42.018;23.986;2022-08-11T16:54:04;4.07;;;3.67;;
2213;SDS011;1113;42.018;23.986;2022-08-11T16:56:32;5.50;;;4.43;;